Time;durP1;ratioP1;P1;durP2;ratioP2;P2;SDS_P1;SDS_P2;PMS_P1;PMS_P2;Temp;Humidity;BMP_temperature;BMP_pressure;BME280_temperature;BME280_humidity;BME280_pressure;Samples;Min_cycle;Max_cycle;Signal;HPM_P1;HPM_P2
2023/05/13 00:00:36;;;;;;;8.05;4.45;;;20.90;90.00;;;;;;5075507;28;20059;-61
2023/05/13 00:03:01;;;;;;;6.45;4.13;;;20.80;90.00;;;;;;5076320;28;20048;-61
2023/05/13 00:05:27;;;;;;;7.50;4.13;;;;;;;;;;5071215;28;20135;-65
2023/05/13 00:07:54;;;;;;;7.28;4.00;;;;;;;;;;5070852;28;20128;-63
2023/05/13 00:10:20;;;;;;;8.38;4.63;;;20.80;90.00;;;;;;5070319;28;20127;-62
2023/05/13 00:12:46;;;;;;;7.72;4.05;;;21.00;90.00;;;;;;5075051;28;20454;-62
2023/05/13 00:15:12;;;;;;;7.03;4.10;;;20.60;89.90;;;;;;5042237;28;20053;-62
2023/05/13 00:17:37;;;;;;;6.53;4.07;;;20.70;89.90;;;;;;5067986;28;20055;-62
2023/05/13 00:20:04;;;;;;;7.20;4.22;;;20.70;90.00;;;;;;5065196;28;20325;-62
2023/05/13 00:22:30;;;;;;;6.53;4.28;;;;;;;;;;5074483;28;20048;-64
2023/05/13 00:24:55;;;;;;;7.88;4.20;;;20.90;90.00;;;;;;5075945;28;20040;-61
2023/05/13 00:27:21;;;;;;;6.88;4.10;;;20.60;89.70;;;;;;5072971;28;20094;-63
2023/05/13 00:29:47;;;;;;;6.68;4.10;;;20.80;89.90;;;;;;5075126;28;20102;-63
2023/05/13 00:32:12;;;;;;;6.65;4.47;;;20.60;89.80;;;;;;5073285;28;20119;-61
2023/05/13 00:34:38;;;;;;;8.20;4.35;;;20.70;89.80;;;;;;5075113;28;20032;-61
2023/05/13 00:37:04;;;;;;;9.48;4.70;;;20.60;89.70;;;;;;5075059;28;20480;-62
2023/05/13 00:39:30;;;;;;;7.78;4.30;;;20.70;89.80;;;;;;5061692;28;20165;-66
2023/05/13 00:41:58;;;;;;;6.70;4.10;;;20.70;87.10;;;;;;5063925;28;20041;-66
2023/05/13 00:44:23;;;;;;;8.43;4.57;;;20.80;89.70;;;;;;5066561;28;20170;-66
2023/05/13 00:46:49;;;;;;;7.25;4.22;;;20.90;89.70;;;;;;5070626;28;20123;-66
2023/05/13 00:49:15;;;;;;;8.02;4.30;;;;;;;;;;5059393;28;20049;-66
2023/05/13 00:51:41;;;;;;;6.82;4.32;;;20.50;89.40;;;;;;5053874;28;20051;-66
2023/05/13 00:54:07;;;;;;;6.10;4.50;;;;;;;;;;5054548;28;20048;-66
2023/05/13 00:56:33;;;;;;;8.00;3.72;;;20.80;89.60;;;;;;5055363;28;20137;-67
2023/05/13 00:58:58;;;;;;;8.55;4.53;;;20.80;86.70;;;;;;5055833;28;20120;-66
2023/05/13 01:01:54;;;;;;;6.30;4.22;;;20.70;89.50;;;;;;5055216;28;20399;-66
2023/05/13 01:04:34;;;;;;;6.15;3.90;;;20.70;89.50;;;;;;5070863;28;20076;-66
2023/05/13 01:07:24;;;;;;;5.38;3.67;;;20.60;89.40;;;;;;5057428;28;20044;-66
2023/05/13 01:10:11;;;;;;;8.52;4.35;;;20.70;89.50;;;;;;5054916;28;20059;-66
2023/05/13 01:12:42;;;;;;;6.07;4.07;;;20.50;84.70;;;;;;5054708;28;20090;-62
2023/05/13 01:15:24;;;;;;;7.70;4.22;;;20.60;86.20;;;;;;5044997;28;20056;-62
2023/05/13 01:17:53;;;;;;;6.15;4.25;;;20.60;89.50;;;;;;5056646;28;20048;-62
2023/05/13 01:20:22;;;;;;;5.47;3.95;;;20.60;89.40;;;;;;5071860;28;20459;-62
2023/05/13 01:22:48;;;;;;;6.93;4.05;;;;;;;;;;5067987;28;20091;-63
2023/05/13 01:25:14;;;;;;;8.20;4.65;;;20.80;89.50;;;;;;5059558;28;20120;-62
2023/05/13 01:27:40;;;;;;;7.25;4.43;;;;;;;;;;5071245;28;20120;-61
2023/05/13 01:30:07;;;;;;;8.18;4.32;;;20.60;89.40;;;;;;5072610;28;20052;-62
2023/05/13 01:32:33;;;;;;;7.75;4.57;;;;;;;;;;5070627;28;20051;-62
2023/05/13 01:34:59;;;;;;;7.28;4.40;;;20.40;89.10;;;;;;5060443;28;20087;-62
2023/05/13 01:37:24;;;;;;;7.45;4.75;;;20.50;88.90;;;;;;5056703;28;20071;-62
2023/05/13 01:39:50;;;;;;;9.07;4.50;;;;;;;;;;5058855;28;20037;-66
2023/05/13 01:42:16;;;;;;;9.50;4.50;;;20.40;89.10;;;;;;5070048;28;20048;-65
2023/05/13 01:44:42;;;;;;;7.63;4.63;;;20.40;89.10;;;;;;5053777;28;20052;-62
2023/05/13 01:47:08;;;;;;;6.95;4.00;;;20.70;88.00;;;;;;5066935;28;20474;-62
2023/05/13 01:49:34;;;;;;;7.45;4.50;;;;;;;;;;5057806;28;20045;-64
2023/05/13 01:51:59;;;;;;;6.10;4.55;;;20.60;87.70;;;;;;5072246;28;20037;-61
2023/05/13 01:54:25;;;;;;;7.28;4.65;;;20.70;89.30;;;;;;5069039;28;20057;-62
2023/05/13 01:56:51;;;;;;;6.18;4.30;;;;;;;;;;5059176;28;20049;-66
2023/05/13 01:59:17;;;;;;;6.10;4.10;;;20.50;89.20;;;;;;5071666;28;20056;-61
2023/05/13 02:01:44;;;;;;;7.22;4.25;;;20.50;89.20;;;;;;5071742;28;20055;-66
2023/05/13 02:04:10;;;;;;;7.82;4.15;;;20.60;89.20;;;;;;5072101;28;20087;-61
2023/05/13 02:06:36;;;;;;;8.07;4.95;;;20.50;89.10;;;;;;5060932;28;20037;-61
2023/05/13 02:09:01;;;;;;;7.63;4.85;;;20.60;89.10;;;;;;5073410;28;20056;-61
2023/05/13 02:11:27;;;;;;;6.70;4.40;;;20.50;89.00;;;;;;5065090;28;20045;-61
2023/05/13 02:13:53;;;;;;;5.82;4.30;;;;;;;;;;5064102;28;20226;-61
2023/05/13 02:16:19;;;;;;;7.63;4.53;;;;;;;;;;5072328;28;20494;-62
2023/05/13 02:18:45;;;;;;;6.55;4.30;;;20.40;89.00;;;;;;5071317;28;20048;-61
2023/05/13 02:21:11;;;;;;;7.22;4.63;;;20.60;89.00;;;;;;5058986;28;20060;-66
2023/05/13 02:23:37;;;;;;;7.60;4.75;;;;;;;;;;5072320;28;20058;-66
2023/05/13 02:26:03;;;;;;;7.43;4.75;;;;;;;;;;5072335;28;20040;-66
2023/05/13 02:28:29;;;;;;;7.82;4.88;;;20.50;89.10;;;;;;5073426;28;20091;-66
2023/05/13 02:30:54;;;;;;;6.95;4.40;;;20.20;85.50;;;;;;5072291;28;20072;-67
2023/05/13 02:33:20;;;;;;;7.25;5.05;;;20.70;87.20;;;;;;5058441;28;20049;-65
2023/05/13 02:35:46;;;;;;;6.57;4.22;;;20.50;88.90;;;;;;5053448;28;20375;-66
2023/05/13 02:38:12;;;;;;;7.20;4.55;;;20.50;88.70;;;;;;5057606;28;20048;-65
2023/05/13 02:40:37;;;;;;;9.88;4.68;;;20.60;88.90;;;;;;5070757;28;20045;-66
2023/05/13 02:43:03;;;;;;;8.57;4.95;;;20.30;88.70;;;;;;5062371;28;20048;-66
2023/05/13 02:45:29;;;;;;;8.75;5.07;;;20.50;88.90;;;;;;5069781;28;20032;-66
2023/05/13 02:47:56;;;;;;;6.28;4.40;;;;;;;;;;5069523;28;20080;-66
2023/05/13 02:50:22;;;;;;;6.35;4.25;;;20.40;88.80;;;;;;5059481;28;20410;-66
2023/05/13 02:52:47;;;;;;;8.32;4.60;;;20.20;85.70;;;;;;5053974;28;20045;-66
2023/05/13 02:55:13;;;;;;;8.73;4.85;;;20.50;88.80;;;;;;5068575;28;20040;-66
2023/05/13 02:57:39;;;;;;;8.05;4.70;;;20.50;88.80;;;;;;5068538;28;20457;-66
2023/05/13 03:00:05;;;;;;;6.90;4.57;;;20.30;88.70;;;;;;5060539;28;20360;-67
2023/05/13 03:02:31;;;;;;;9.07;4.70;;;20.60;86.60;;;;;;5070297;28;20040;-65
2023/05/13 03:04:57;;;;;;;7.45;4.85;;;20.70;88.90;;;;;;5067102;28;20048;-66
2023/05/13 03:07:23;;;;;;;9.20;4.80;;;20.40;88.70;;;;;;5072596;28;20071;-66
2023/05/13 03:09:49;;;;;;;7.55;4.93;;;;;;;;;;5069426;28;20173;-66
2023/05/13 03:12:15;;;;;;;6.28;4.68;;;;;;;;;;5069847;28;20051;-67
2023/05/13 03:14:43;;;;;;;7.55;4.50;;;;;;;;;;5059387;28;20045;-66
2023/05/13 03:17:09;;;;;;;9.05;4.30;;;20.50;86.10;;;;;;5064993;28;20045;-66
2023/05/13 03:19:35;;;;;;;7.53;5.22;;;20.40;88.50;;;;;;5069223;28;20048;-66
2023/05/13 03:22:02;;;;;;;7.57;4.85;;;;;;;;;;5057512;28;20431;-66
2023/05/13 03:24:27;;;;;;;7.63;4.63;;;20.30;88.50;;;;;;5071503;28;20123;-66
2023/05/13 03:26:53;;;;;;;6.70;4.90;;;20.40;85.40;;;;;;5071586;28;20082;-66
2023/05/13 03:29:19;;;;;;;6.18;4.70;;;20.40;86.70;;;;;;5068572;28;20053;-66
2023/05/13 03:31:45;;;;;;;8.30;5.15;;;20.40;88.40;;;;;;5061537;28;20041;-66
2023/05/13 03:34:10;;;;;;;8.18;5.13;;;20.50;88.50;;;;;;5065018;28;20486;-67
2023/05/13 03:36:36;;;;;;;6.78;4.50;;;20.50;88.50;;;;;;5066237;28;20053;-66
2023/05/13 03:39:02;;;;;;;8.63;4.97;;;;;;;;;;5071679;28;20051;-66
2023/05/13 03:41:28;;;;;;;9.18;4.93;;;20.40;88.40;;;;;;5070426;28;20045;-66
2023/05/13 03:43:54;;;;;;;6.95;4.93;;;;;;;;;;5053069;28;20037;-66
2023/05/13 03:46:21;;;;;;;7.97;5.30;;;;;;;;;;5064097;28;20052;-66
2023/05/13 03:48:48;;;;;;;6.95;4.93;;;;;;;;;;5070393;28;20091;-66
2023/05/13 03:51:14;;;;;;;11.15;4.88;;;20.40;88.30;;;;;;5070897;28;20051;-66
2023/05/13 03:53:40;;;;;;;7.28;5.38;;;20.20;88.10;;;;;;5058647;28;20044;-66
2023/05/13 03:56:06;;;;;;;8.38;4.82;;;20.40;88.20;;;;;;5051309;28;20513;-66
2023/05/13 03:58:32;;;;;;;6.53;5.03;;;20.60;88.30;;;;;;5061364;28;20075;-66
2023/05/13 04:00:58;;;;;;;7.13;4.97;;;;;;;;;;5060492;28;20056;-66
2023/05/13 04:03:24;;;;;;;7.50;4.88;;;;;;;;;;5070609;28;20127;-66
2023/05/13 04:05:50;;;;;;;7.90;5.28;;;20.50;86.50;;;;;;5067715;28;20059;-66
2023/05/13 04:08:16;;;;;;;7.65;5.10;;;;;;;;;;5063782;28;20398;-66
2023/05/13 04:10:42;;;;;;;8.15;5.28;;;20.50;88.10;;;;;;5056236;28;20486;-66
2023/05/13 04:13:08;;;;;;;10.63;5.40;;;20.50;88.10;;;;;;5068246;28;20046;-66
2023/05/13 04:15:33;;;;;;;7.15;5.30;;;20.40;88.00;;;;;;5065135;28;20052;-66
2023/05/13 04:17:59;;;;;;;8.07;5.00;;;20.20;87.80;;;;;;5049241;28;20040;-66
2023/05/13 04:20:25;;;;;;;9.90;5.30;;;20.40;88.00;;;;;;5060891;28;20041;-66
2023/05/13 04:22:51;;;;;;;8.40;5.03;;;20.30;87.90;;;;;;5070432;28;20056;-66
2023/05/13 04:25:17;;;;;;;7.50;5.30;;;20.50;84.40;;;;;;5072101;28;20474;-67
2023/05/13 04:27:42;;;;;;;7.68;4.95;;;20.70;88.00;;;;;;5072084;28;20453;-66
2023/05/13 04:30:09;;;;;;;7.32;4.93;;;20.70;87.90;;;;;;5070122;28;20486;-67
2023/05/13 04:32:35;;;;;;;7.72;5.47;;;;;;;;;;5053764;28;20406;-66
2023/05/13 04:35:00;;;;;;;8.98;4.80;;;20.40;87.70;;;;;;5061263;28;20041;-65
2023/05/13 04:37:26;;;;;;;8.05;5.50;;;20.60;87.80;;;;;;5071431;28;20064;-67
2023/05/13 04:39:53;;;;;;;9.88;5.47;;;;;;;;;;5071142;28;20363;-61
2023/05/13 04:42:18;;;;;;;8.23;5.72;;;20.80;87.70;;;;;;5053368;28;20548;-62
2023/05/13 04:44:44;;;;;;;8.98;5.68;;;20.90;85.00;;;;;;5060635;28;20036;-62
2023/05/13 04:47:10;;;;;;;10.70;5.50;;;;;;;;;;5069129;28;20559;-62
2023/05/13 04:49:36;;;;;;;9.43;5.18;;;20.60;86.90;;;;;;5072341;28;20075;-61
2023/05/13 04:52:02;;;;;;;10.75;5.50;;;;;;;;;;5072938;28;20514;-66
2023/05/13 04:54:28;;;;;;;10.65;5.50;;;;;;;;;;5074379;28;20040;-66
2023/05/13 04:56:54;;;;;;;9.20;5.38;;;20.90;85.10;;;;;;5071778;28;20860;-65
2023/05/13 04:59:20;;;;;;;9.18;5.47;;;;;;;;;;5065814;28;20044;-66
2023/05/13 05:01:46;;;;;;;6.65;4.97;;;21.10;87.20;;;;;;5062968;28;20139;-66
2023/05/13 05:04:12;;;;;;;8.57;5.07;;;21.20;86.00;;;;;;5068276;28;20136;-62
2023/05/13 05:06:37;;;;;;;8.70;5.00;;;21.30;87.10;;;;;;5055180;28;20052;-63
2023/05/13 05:09:03;;;;;;;8.38;4.95;;;21.00;86.70;;;;;;5072441;28;20051;-65
2023/05/13 05:11:29;;;;;;;8.07;5.55;;;21.40;86.60;;;;;;5070906;28;20037;-62
2023/05/13 05:13:55;;;;;;;8.85;5.22;;;21.40;86.30;;;;;;5070772;28;20053;-62
2023/05/13 05:16:21;;;;;;;8.50;5.18;;;;;;;;;;5072326;28;20067;-62
2023/05/13 05:18:47;;;;;;;7.97;5.13;;;21.80;86.10;;;;;;5058384;28;20053;-61
2023/05/13 05:21:13;;;;;;;7.53;5.38;;;21.70;85.70;;;;;;5056568;28;20049;-61
2023/05/13 05:23:38;;;;;;;8.95;4.95;;;22.20;85.70;;;;;;5069010;28;20033;-60
2023/05/13 05:26:04;;;;;;;8.93;4.93;;;22.00;85.20;;;;;;5055680;28;20072;-60
2023/05/13 05:28:30;;;;;;;7.32;4.50;;;22.30;85.20;;;;;;5063906;28;20036;-61
2023/05/13 05:30:56;;;;;;;7.72;4.68;;;22.40;85.10;;;;;;5057243;28;20053;-61
2023/05/13 05:33:22;;;;;;;6.05;3.92;;;22.40;84.90;;;;;;5065863;28;20040;-61
2023/05/13 05:35:48;;;;;;;6.18;4.25;;;22.40;84.70;;;;;;5054902;28;20056;-61
2023/05/13 05:38:13;;;;;;;8.15;4.80;;;22.50;84.50;;;;;;5057433;28;20116;-62
2023/05/13 05:40:40;;;;;;;7.70;4.70;;;22.80;84.20;;;;;;5069485;28;20471;-61
2023/05/13 05:43:06;;;;;;;7.78;4.82;;;22.70;84.20;;;;;;5074017;28;20072;-62
2023/05/13 05:45:36;;;;;;;8.57;4.53;;;22.70;79.70;;;;;;5072263;28;20040;-62
2023/05/13 05:48:01;;;;;;;10.35;4.95;;;22.80;83.80;;;;;;5064636;28;20566;-62
2023/05/13 05:50:27;;;;;;;8.02;4.72;;;22.90;83.70;;;;;;5065059;28;20139;-62
2023/05/13 05:52:53;;;;;;;8.13;4.82;;;23.00;83.60;;;;;;5064936;28;20037;-62
2023/05/13 05:55:19;;;;;;;11.07;4.88;;;22.80;83.40;;;;;;5059343;28;20047;-61
2023/05/13 05:57:45;;;;;;;8.07;5.25;;;23.00;83.30;;;;;;5063251;28;20053;-62
2023/05/13 06:00:12;;;;;;;9.05;4.93;;;22.80;83.00;;;;;;5065833;28;20044;-63
2023/05/13 06:02:37;;;;;;;8.57;5.32;;;23.10;83.00;;;;;;5064481;28;20040;-63
2023/05/13 06:05:03;;;;;;;8.73;5.07;;;23.10;81.00;;;;;;5050891;28;20055;-64
2023/05/13 06:07:29;;;;;;;10.43;4.85;;;23.20;82.60;;;;;;5072711;28;20090;-61
2023/05/13 06:09:55;;;;;;;7.57;4.80;;;23.20;82.40;;;;;;5073913;28;20040;-65
2023/05/13 06:12:21;;;;;;;7.50;4.80;;;23.30;82.50;;;;;;5071730;28;20068;-65
2023/05/13 06:14:48;;;;;;;9.30;4.85;;;;;;;;;;5067882;28;20123;-65
2023/05/13 06:17:13;;;;;;;6.90;4.47;;;23.50;82.20;;;;;;5072332;28;20045;-66
2023/05/13 06:19:43;;;;;;;9.05;4.75;;;23.60;82.30;;;;;;5073340;28;20047;-65
2023/05/13 06:22:11;;;;;;;7.18;4.57;;;23.50;81.90;;;;;;5070945;28;20123;-65
2023/05/13 06:24:37;;;;;;;7.85;4.60;;;23.20;81.70;;;;;;5072163;28;20544;-65
2023/05/13 06:27:04;;;;;;;7.75;4.38;;;23.30;81.80;;;;;;5073249;28;20071;-66
2023/05/13 06:29:30;;;;;;;6.68;4.00;;;23.70;81.90;;;;;;5072688;28;20072;-66
2023/05/13 06:31:56;;;;;;;7.57;4.32;;;23.80;81.70;;;;;;5071115;28;20136;-65
2023/05/13 06:34:21;;;;;;;9.27;5.03;;;23.50;81.70;;;;;;5054969;28;20129;-71
2023/05/13 06:36:47;;;;;;;7.93;4.40;;;23.70;78.20;;;;;;5070045;28;20076;-62
2023/05/13 06:39:13;;;;;;;6.43;4.78;;;;;;;;;;5071959;28;20043;-64
2023/05/13 06:41:39;;;;;;;6.85;4.40;;;23.80;81.40;;;;;;5054916;28;20052;-65
2023/05/13 06:44:06;;;;;;;8.48;4.60;;;;;;;;;;5065292;28;20048;-65
2023/05/13 06:46:32;;;;;;;7.97;4.82;;;24.00;81.30;;;;;;5062044;28;20128;-67
2023/05/13 06:48:58;;;;;;;7.47;4.43;;;24.10;81.20;;;;;;5067522;28;20135;-65
2023/05/13 06:51:25;;;;;;;7.65;4.60;;;;;;;;;;5070130;28;20128;-72
2023/05/13 06:53:53;;;;;;;7.85;4.53;;;24.00;76.50;;;;;;5071117;28;20052;-62
2023/05/13 06:56:21;;;;;;;7.93;4.28;;;24.10;80.70;;;;;;5071614;28;20502;-67
2023/05/13 06:58:49;;;;;;;7.90;4.65;;;24.20;81.10;;;;;;5068197;28;20060;-64
2023/05/13 07:01:15;;;;;;;9.13;4.88;;;24.00;78.40;;;;;;5070367;28;20066;-65
2023/05/13 07:03:42;;;;;;;7.32;5.00;;;;;;;;;;5061916;28;20052;-66
2023/05/13 07:06:07;;;;;;;10.15;4.82;;;24.30;81.10;;;;;;5058878;28;20597;-63
2023/05/13 07:08:33;;;;;;;7.95;5.10;;;24.40;80.80;;;;;;5055752;28;20045;-68
2023/05/13 07:10:59;;;;;;;8.80;5.18;;;24.20;81.10;;;;;;5057065;28;20431;-66
2023/05/13 07:13:25;;;;;;;11.25;4.93;;;24.40;81.00;;;;;;5064511;28;20102;-70
2023/05/13 07:15:51;;;;;;;8.65;4.78;;;24.60;81.30;;;;;;5069344;28;20059;-66
2023/05/13 07:18:17;;;;;;;9.52;5.22;;;24.50;81.10;;;;;;5069060;28;20041;-65
2023/05/13 07:20:43;;;;;;;6.47;4.97;;;24.80;81.30;;;;;;5058158;28;20111;-69
2023/05/13 07:23:08;;;;;;;9.93;5.47;;;24.40;78.40;;;;;;5063277;28;20044;-68
2023/05/13 07:25:34;;;;;;;8.35;5.25;;;24.40;81.00;;;;;;5069572;28;20045;-68
2023/05/13 07:28:00;;;;;;;10.45;5.45;;;24.60;81.10;;;;;;5062192;28;20044;-68
2023/05/13 07:30:26;;;;;;;9.30;5.20;;;24.50;81.00;;;;;;5055099;28;20106;-62
2023/05/13 07:32:51;;;;;;;10.18;5.43;;;24.80;81.10;;;;;;5052206;28;20136;-69
2023/05/13 07:35:17;;;;;;;6.40;4.97;;;24.60;81.10;;;;;;5056964;28;20049;-65
2023/05/13 07:37:43;;;;;;;7.53;4.85;;;24.60;78.20;;;;;;5053101;28;20052;-71
2023/05/13 07:40:09;;;;;;;9.57;5.50;;;24.70;81.10;;;;;;5062819;28;20043;-62
2023/05/13 07:42:36;;;;;;;8.63;5.00;;;24.70;78.00;;;;;;5060387;28;20105;-66
2023/05/13 07:45:02;;;;;;;10.20;5.38;;;;;;;;;;5054737;28;20036;-68
2023/05/13 07:47:30;;;;;;;10.20;5.00;;;25.00;77.50;;;;;;5053269;28;20091;-68
2023/05/13 07:49:56;;;;;;;8.57;5.30;;;24.70;80.90;;;;;;5059940;28;20078;-68
2023/05/13 07:52:22;;;;;;;11.05;5.10;;;24.80;81.00;;;;;;5071883;28;20041;-67
2023/05/13 07:54:48;;;;;;;7.82;5.43;;;24.80;80.70;;;;;;5070659;28;20048;-70
2023/05/13 07:57:14;;;;;;;9.18;5.88;;;24.80;78.30;;;;;;5071218;28;20135;-65
2023/05/13 07:59:40;;;;;;;8.20;5.78;;;24.80;80.70;;;;;;5070172;28;20119;-62
2023/05/13 08:02:06;;;;;;;8.63;5.43;;;24.90;80.70;;;;;;5071129;28;20102;-65
2023/05/13 08:04:32;;;;;;;9.60;5.22;;;24.80;80.00;;;;;;5062113;28;20045;-64
2023/05/13 08:07:00;;;;;;;8.65;5.05;;;25.10;80.70;;;;;;5066477;28;20124;-62
2023/05/13 08:09:26;;;;;;;8.77;5.45;;;24.80;78.00;;;;;;5067715;28;20037;-65
2023/05/13 08:11:51;;;;;;;8.88;5.22;;;24.70;77.90;;;;;;5058006;28;20398;-62
2023/05/13 08:14:17;;;;;;;12.32;5.32;;;24.80;80.60;;;;;;5060985;28;20508;-63
2023/05/13 08:16:43;;;;;;;8.07;5.28;;;25.10;78.00;;;;;;5070072;28;20398;-62
2023/05/13 08:19:09;;;;;;;9.43;5.53;;;25.10;78.70;;;;;;5074966;28;20456;-64
2023/05/13 08:21:34;;;;;;;10.68;5.20;;;25.10;78.00;;;;;;5075054;28;20076;-62
2023/05/13 08:24:01;;;;;;;9.55;5.28;;;24.90;80.50;;;;;;5062557;28;20458;-62
2023/05/13 08:26:27;;;;;;;8.52;5.30;;;25.30;78.10;;;;;;5067129;28;20041;-63
2023/05/13 08:28:53;;;;;;;7.68;4.95;;;25.10;78.00;;;;;;5073684;28;20048;-62
2023/05/13 08:31:19;;;;;;;8.85;4.80;;;25.10;78.00;;;;;;5074806;28;20050;-63
2023/05/13 08:33:46;;;;;;;7.97;4.50;;;25.10;77.90;;;;;;5068916;28;20055;-64
2023/05/13 08:36:12;;;;;;;9.50;4.85;;;;;;;;;;5067739;28;20056;-66
2023/05/13 08:38:38;;;;;;;9.57;4.55;;;25.30;76.30;;;;;;5073443;28;20051;-63
2023/05/13 08:41:05;;;;;;;8.20;4.97;;;25.10;80.80;;;;;;5072312;28;20389;-63
2023/05/13 08:43:31;;;;;;;8.57;4.78;;;25.30;78.20;;;;;;5069248;28;20041;-64
2023/05/13 08:45:57;;;;;;;9.90;4.88;;;25.30;81.00;;;;;;5061589;28;20071;-67
2023/05/13 08:48:22;;;;;;;7.88;4.40;;;25.00;78.00;;;;;;5069324;28;20037;-64
2023/05/13 08:50:48;;;;;;;9.07;4.55;;;25.00;77.90;;;;;;5075380;28;20538;-64
2023/05/13 08:53:15;;;;;;;8.50;4.75;;;25.20;81.10;;;;;;5071567;28;20040;-64
2023/05/13 08:55:41;;;;;;;8.05;4.38;;;25.10;78.40;;;;;;5063079;28;20059;-66
2023/05/13 08:58:09;;;;;;;8.55;4.82;;;25.20;81.20;;;;;;5071565;28;20060;-64
2023/05/13 09:00:35;;;;;;;6.43;4.30;;;25.20;81.30;;;;;;5072292;28;20060;-66
2023/05/13 09:03:01;;;;;;;8.73;4.72;;;25.10;78.40;;;;;;5073913;28;20049;-65
2023/05/13 09:05:27;;;;;;;11.40;4.93;;;25.00;82.10;;;;;;5074543;28;20043;-62
2023/05/13 09:07:53;;;;;;;9.50;4.78;;;25.30;79.00;;;;;;5065376;28;20041;-65
2023/05/13 09:10:19;;;;;;;10.05;4.90;;;25.30;81.80;;;;;;5066162;28;20094;-63
2023/05/13 09:12:47;;;;;;;8.75;4.60;;;25.20;78.60;;;;;;5057540;28;20510;-62
2023/05/13 09:15:14;;;;;;;13.90;5.53;;;25.30;79.00;;;;;;5067994;28;20044;-62
2023/05/13 09:17:44;;;;;;;8.85;4.88;;;25.40;79.20;;;;;;5070703;28;20185;-62
2023/05/13 09:20:14;;;;;;;12.68;5.30;;;25.30;79.20;;;;;;5056244;28;20056;-62
2023/05/13 09:22:47;;;;;;;9.60;4.93;;;25.10;79.20;;;;;;5073491;28;20042;-65
2023/05/13 09:25:15;;;;;;;9.27;4.85;;;25.00;79.50;;;;;;5073941;28;20080;-65
2023/05/13 09:28:01;;;;;;;11.38;5.22;;;25.30;79.40;;;;;;5065981;28;20115;-65
2023/05/13 09:30:28;;;;;;;9.93;4.85;;;25.00;82.10;;;;;;5056336;28;20139;-62
2023/05/13 09:33:16;;;;;;;13.98;5.10;;;25.00;79.40;;;;;;5056708;28;20040;-64
2023/05/13 09:35:43;;;;;;;9.02;4.40;;;25.10;78.30;;;;;;5074042;28;20118;-65
2023/05/13 09:38:16;;;;;;;8.95;4.85;;;25.10;79.40;;;;;;5072490;28;20041;-65
2023/05/13 09:41:02;;;;;;;7.18;4.05;;;25.10;82.30;;;;;;5060528;28;20037;-65
2023/05/13 09:43:30;;;;;;;8.70;4.35;;;25.00;82.10;;;;;;5061944;28;20063;-65
2023/05/13 09:45:59;;;;;;;7.15;4.43;;;25.00;82.10;;;;;;5053739;28;20056;-66
2023/05/13 09:48:26;;;;;;;7.57;4.57;;;25.10;82.20;;;;;;5074062;28;20044;-66
2023/05/13 09:50:52;;;;;;;5.97;3.83;;;24.80;82.10;;;;;;5068716;28;20049;-65
2023/05/13 09:53:21;;;;;;;9.77;4.38;;;25.30;79.70;;;;;;5062579;28;20098;-65
2023/05/13 09:55:51;;;;;;;9.90;4.60;;;24.90;81.30;;;;;;5065493;28;20063;-67
2023/05/13 09:58:18;;;;;;;8.98;4.28;;;25.10;79.90;;;;;;5054594;28;20060;-67
2023/05/13 10:00:45;;;;;;;8.07;4.25;;;25.10;79.70;;;;;;5054876;28;20033;-69
2023/05/13 10:03:10;;;;;;;6.22;4.03;;;24.90;79.70;;;;;;5055540;28;20535;-65
2023/05/13 10:05:37;;;;;;;14.90;4.80;;;25.00;79.50;;;;;;5054574;28;20041;-68
2023/05/13 10:08:03;;;;;;;9.77;4.10;;;24.90;79.80;;;;;;5054966;28;20041;-62
2023/05/13 10:10:30;;;;;;;6.97;4.03;;;24.80;79.30;;;;;;5068508;28;20044;-65
2023/05/13 10:13:11;;;;;;;8.75;3.85;;;25.10;82.80;;;;;;5070772;28;20056;-65
2023/05/13 10:15:48;;;;;;;8.05;3.60;;;24.90;82.70;;;;;;5070245;28;20084;-65
2023/05/13 10:18:14;;;;;;;9.13;4.18;;;25.20;78.80;;;;;;5067274;28;20119;-65
2023/05/13 10:20:41;;;;;;;11.15;4.40;;;25.10;80.00;;;;;;5066859;28;20052;-66
2023/05/13 10:23:07;;;;;;;10.35;4.07;;;24.80;82.70;;;;;;5063918;28;20399;-65
2023/05/13 10:25:32;;;;;;;8.02;4.00;;;24.90;83.10;;;;;;5058256;28;20431;-66
2023/05/13 10:27:58;;;;;;;9.30;4.28;;;25.10;82.90;;;;;;5063381;28;20048;-65
2023/05/13 10:30:25;;;;;;;7.55;3.92;;;24.90;80.00;;;;;;5068217;28;20045;-67
2023/05/13 10:32:51;;;;;;;9.43;4.18;;;25.10;80.10;;;;;;5063484;28;20044;-65
2023/05/13 10:35:18;;;;;;;8.95;4.28;;;25.00;80.20;;;;;;5053479;28;20045;-61
2023/05/13 10:37:53;;;;;;;7.75;4.38;;;24.90;79.80;;;;;;5052301;28;20367;-62
2023/05/13 10:40:24;;;;;;;7.22;3.90;;;25.20;80.80;;;;;;5068976;28;20047;-61
2023/05/13 10:43:41;;;;;;;8.43;4.07;;;25.00;79.00;;;;;;5061372;28;20051;-65
2023/05/13 10:46:10;;;;;;;9.20;4.25;;;25.00;82.60;;;;;;4991540;28;20078;-64
2023/05/13 10:48:49;;;;;;;8.50;3.63;;;25.00;82.30;;;;;;4990882;28;20125;-67
2023/05/13 10:51:16;;;;;;;8.00;4.28;;;24.80;82.50;;;;;;5009722;28;20116;-63
2023/05/13 10:53:52;;;;;;;6.75;4.00;;;25.00;82.70;;;;;;5009349;28;20121;-64
2023/05/13 10:56:23;;;;;;;9.70;4.22;;;24.80;80.20;;;;;;5010853;28;20062;-64
2023/05/13 10:59:02;;;;;;;9.18;3.92;;;24.80;82.30;;;;;;5009917;28;20431;-64
2023/05/13 11:01:29;;;;;;;7.93;4.22;;;24.90;82.50;;;;;;4994537;28;20452;-62
2023/05/13 11:03:59;;;;;;;7.72;4.05;;;24.80;79.60;;;;;;4983847;28;20069;-64
2023/05/13 11:06:45;;;;;;;7.00;3.92;;;24.90;79.50;;;;;;4991202;28;20058;-65
2023/05/13 11:09:13;;;;;;;6.35;3.75;;;25.00;82.10;;;;;;4997316;28;20053;-63
2023/05/13 11:11:39;;;;;;;8.77;3.80;;;24.80;79.40;;;;;;5009098;28;20107;-70
2023/05/13 11:14:09;;;;;;;5.38;3.92;;;24.80;81.40;;;;;;4995554;28;20042;-66
2023/05/13 11:16:36;;;;;;;8.40;4.28;;;24.80;81.10;;;;;;5007128;28;20495;-65
2023/05/13 11:19:02;;;;;;;6.43;3.95;;;24.80;78.40;;;;;;5010555;28;20129;-62
2023/05/13 11:21:32;;;;;;;8.73;3.53;;;25.10;81.50;;;;;;5027553;28;20053;-63
2023/05/13 11:24:04;;;;;;;7.00;3.75;;;24.90;81.40;;;;;;5057838;28;20048;-65
2023/05/13 11:26:55;;;;;;;8.23;3.97;;;24.90;80.70;;;;;;5071566;28;20041;-65
2023/05/13 11:29:28;;;;;;;6.13;3.78;;;24.90;80.60;;;;;;5067525;28;20052;-62
2023/05/13 11:31:56;;;;;;;7.18;3.70;;;24.80;79.90;;;;;;5055328;28;20119;-63
2023/05/13 11:34:22;;;;;;;6.25;3.35;;;24.90;79.80;;;;;;5054078;28;20059;-62
2023/05/13 11:36:50;;;;;;;5.50;3.50;;;24.80;77.00;;;;;;5062845;28;20044;-62
2023/05/13 11:39:17;;;;;;;5.97;3.75;;;24.90;80.00;;;;;;5060595;28;20049;-62
2023/05/13 11:41:44;;;;;;;7.30;3.65;;;24.70;77.20;;;;;;5055353;28;20048;-66
2023/05/13 11:44:11;;;;;;;5.78;3.40;;;24.90;77.20;;;;;;5060081;28;20048;-62
2023/05/13 11:46:37;;;;;;;6.80;3.60;;;25.10;80.10;;;;;;5061183;28;20098;-66
2023/05/13 11:49:03;;;;;;;8.88;3.67;;;24.90;80.00;;;;;;5050099;28;20045;-64
2023/05/13 11:51:30;;;;;;;5.18;3.60;;;24.80;76.90;;;;;;5074879;28;20115;-64
2023/05/13 11:54:02;;;;;;;6.35;3.72;;;25.00;77.10;;;;;;5058638;28;20051;-64
2023/05/13 11:56:28;;;;;;;7.32;3.60;;;24.90;79.60;;;;;;5059832;28;20066;-61
2023/05/13 11:58:55;;;;;;;5.55;3.50;;;24.90;79.60;;;;;;5067921;28;20080;-63
2023/05/13 12:01:21;;;;;;;6.60;3.40;;;24.80;79.10;;;;;;5078700;28;20045;-62
2023/05/13 12:03:47;;;;;;;6.95;3.45;;;25.10;79.40;;;;;;5066769;28;20052;-64
2023/05/13 12:06:12;;;;;;;5.70;3.20;;;24.70;79.50;;;;;;5077866;28;20032;-62
2023/05/13 12:08:45;;;;;;;5.63;3.05;;;24.90;79.70;;;;;;5062247;28;20045;-66
2023/05/13 12:11:12;;;;;;;4.85;3.17;;;25.10;79.50;;;;;;5061722;28;20121;-62
2023/05/13 12:13:39;;;;;;;6.68;3.42;;;26.60;80.30;;;;;;5060756;28;20174;-62
2023/05/13 12:16:05;;;;;;;7.00;3.55;;;25.00;76.60;;;;;;5101293;28;20048;-62
2023/05/13 12:18:32;;;;;;;7.32;3.35;;;24.90;78.80;;;;;;5063893;28;20049;-62
2023/05/13 12:20:58;;;;;;;7.10;3.50;;;25.10;78.70;;;;;;5068025;28;20486;-65
2023/05/13 12:23:24;;;;;;;5.22;3.42;;;25.00;79.40;;;;;;5059770;28;20053;-62
2023/05/13 12:25:50;;;;;;;4.70;2.95;;;;;;;;;;5070700;28;20449;-71
2023/05/13 12:28:22;;;;;;;6.80;3.70;;;24.60;74.60;;;;;;5060246;28;20049;-62
2023/05/13 12:31:01;;;;;;;6.35;3.50;;;25.00;79.00;;;;;;5071244;28;20056;-65
2023/05/13 12:33:40;;;;;;;6.78;3.58;;;24.90;79.40;;;;;;5058546;28;20398;-76
2023/05/13 12:36:34;;;;;;;6.95;3.28;;;24.70;78.40;;;;;;5072451;28;20052;-65
2023/05/13 12:39:10;;;;;;;15.25;5.15;;;24.90;74.70;;;;;;5070781;28;20049;-66
2023/05/13 12:41:40;;;;;;;8.07;3.63;;;24.70;78.30;;;;;;5059086;28;20120;-63
2023/05/13 12:44:12;;;;;;;6.80;3.60;;;25.00;78.40;;;;;;5057300;28;20083;-62
2023/05/13 12:46:39;;;;;;;6.82;3.60;;;24.80;75.90;;;;;;5060752;28;20456;-64
2023/05/13 12:49:05;;;;;;;7.63;3.50;;;24.90;79.00;;;;;;5076108;28;20060;-64
2023/05/13 12:51:32;;;;;;;8.00;3.30;;;25.10;79.30;;;;;;5064772;28;20045;-63
2023/05/13 12:53:58;;;;;;;8.73;3.55;;;24.90;76.10;;;;;;5065048;28;20095;-65
2023/05/13 12:56:24;;;;;;;6.63;3.72;;;24.80;75.90;;;;;;5068369;28;20068;-63
2023/05/13 12:58:54;;;;;;;9.50;4.10;;;24.80;78.30;;;;;;5074310;28;20497;-67
2023/05/13 13:01:20;;;;;;;6.53;3.33;;;24.80;78.70;;;;;;5073084;28;20048;-61